Terminal Aerodrome Forecast
Issued by NWS

Home | Current Version | Previous Version | Text Only | Print | Product List | Glossary On
Versions: 1 2 3 4 5 6 7 8 9 10 11 12 13 14 15 16 17
000
FTUS46 KLOX 291000 AAA
TAFPRB
TAF AMD
KPRB 291045Z 2911/3006 31008KT P6SM OVC004
     FM291200 VRB03KT 3SM BR OVC002
     FM291530 32007KT P6SM SKC
     FM292200 21012KT P6SM SKC
     FM300400 31008KT P6SM SKC=

USA.gov is the U.S. government's official web portal to all federal, state and local government web resources and services.